Terminal Aerodrome Forecast
Issued by NWS

Home | Current Version | Previous Version | Text Only | Print | Product List | Glossary On
Versions: 1 2 3 4 5 6 7 8 9 10 11 12 13 14 15 16 17 18 19
000
FTUS44 KLZK 272300
TAFADF
TAF
KADF 272334Z 2800/2824 VRB03KT P6SM SCT250
     FM280600 00000KT 4SM BR SCT250
      TEMPO 2808/2812 1SM BR
     FM281200 17003KT P6SM SCT040=

USA.gov is the U.S. government's official web portal to all federal, state and local government web resources and services.